Home > Products > Valid Products > TAF

000
FTUS43 KDTX 310810 AAA
TAFDTW
TAF AMD
KDTW 310810Z 3108/0112 00000KT 2SM BR SKC
     FM311000 00000KT 1SM BR SCT003
     FM311300 VRB03KT 3SM BR SCT015
     FM311600 25005KT P6SM FEW045=



000
FTUS43 KDTX 310810 AAA
TAFDTW
TAF AMD
KDTW 310810Z 3108/0112 00000KT 2SM BR SKC
     FM311000 00000KT 1SM BR SCT003
     FM311300 VRB03KT 3SM BR SCT015
     FM311600 25005KT P6SM FEW045=



000
FTUS43 KDTX 310529
TAFFNT
TAF
KFNT 310529Z 3106/0106 00000KT 1/4SM FG VV001
     FM311300 VRB03KT 3SM BR SCT015
     FM311600 25005KT P6SM FEW045=



000
FTUS43 KDTX 310529
TAFDET
TAF
KDET 310529Z 3106/0106 00000KT P6SM SKC
     FM311000 00000KT 2SM BR SKC
     FM311600 25005KT P6SM FEW045=



000
FTUS43 KDTX 310529
TAFMBS
TAF
KMBS 310529Z 3106/0106 00000KT 4SM BR SKC
     FM310800 00000KT 1SM BR SKC
     FM311000 00000KT 3/4SM BR VV007
     FM311300 VRB03KT 3SM BR SCT015
     FM311600 25005KT P6SM FEW045=



000
FTUS43 KDTX 310529
TAFDTW
TAF
KDTW 310529Z 3106/0112 00000KT 1SM BR SKC
     FM311000 00000KT 3/4SM BR BKN005
     FM311300 VRB03KT 3SM BR SCT015
     FM311600 25005KT P6SM FEW045=



000
FTUS43 KDTX 310304 AAA
TAFDTW
TAF AMD
KDTW 310304Z 3103/0106 00000KT 5SM BR SKC
     FM310800 00000KT 1SM BR SKC
     FM311000 00000KT 3/4SM BR VV005
     FM311300 VRB03KT 3SM BR SCT015
     FM311600 25005KT P6SM FEW045=



000
FTUS43 KDTX 310304 AAA
TAFDTW
TAF AMD
KDTW 310304Z 3103/0106 00000KT 5SM BR SKC
     FM310800 00000KT 1SM BR SKC
     FM311000 00000KT 3/4SM BR VV005
     FM311300 VRB03KT 3SM BR SCT015
     FM311600 25005KT P6SM FEW045=



000
FTUS43 KDTX 310204 AAA
TAFFNT
TAF AMD
KFNT 310204Z 3102/3124 00000KT 3SM BR SKC
     FM310800 00000KT 1SM BR VV007
     FM311400 VRB03KT 3SM BR SCT015
     FM311600 25005KT P6SM FEW045=



000
FTUS43 KDTX 302320
TAFDTW
TAF
KDTW 302320Z 3100/0106 VRB05KT P6SM SCT040
     FM310200 22004KT P6SM SKC
     FM310800 VRB03KT 3SM BR SKC
     FM311000 00000KT 1SM BR VV007
     FM311400 VRB03KT 3SM BR SCT015
     FM311600 25005KT P6SM FEW045=



000
FTUS43 KDTX 302320
TAFFNT
TAF
KFNT 302320Z 3100/3124 24005KT P6SM SCT045
     FM310800 VRB03KT 3SM BR SKC
     FM311000 00000KT 1SM BR VV007
     FM311400 VRB03KT 3SM BR SCT015
     FM311600 25005KT P6SM FEW045=



000
FTUS43 KDTX 302320
TAFMBS
TAF
KMBS 302320Z 3100/3124 23007KT P6SM SCT035
     FM310800 VRB03KT 3SM BR SKC
     FM311000 00000KT 1SM BR VV007
     FM311400 VRB03KT 3SM BR SCT015
     FM311600 25005KT P6SM FEW045=



000
FTUS43 KDTX 302320
TAFDET
TAF
KDET 302320Z 3100/3124 VRB04KT P6SM SCT040
     FM311000 VRB03KT 3SM BR SKC
     FM311600 25005KT P6SM FEW045=



000
FTUS43 KDTX 302320
TAFDTW
TAF
KDTW 302320Z 3100/0106 VRB05KT P6SM SCT040
     FM310200 22004KT P6SM SKC
     FM310800 VRB03KT 3SM BR SKC
     FM311000 00000KT 1SM BR VV007
     FM311400 VRB03KT 3SM BR SCT015
     FM311600 25005KT P6SM FEW045=



000
FTUS43 KDTX 302320
TAFMBS
TAF
KMBS 302320Z 3100/3124 23007KT P6SM SCT035
     FM310800 VRB03KT 3SM BR SKC
     FM311000 00000KT 1SM BR VV007
     FM311400 VRB03KT 3SM BR SCT015
     FM311600 25005KT P6SM FEW045=



000
FTUS43 KDTX 302320
TAFFNT
TAF
KFNT 302320Z 3100/3124 24005KT P6SM SCT045
     FM310800 VRB03KT 3SM BR SKC
     FM311000 00000KT 1SM BR VV007
     FM311400 VRB03KT 3SM BR SCT015
     FM311600 25005KT P6SM FEW045=



000
FTUS43 KDTX 302320
TAFDET
TAF
KDET 302320Z 3100/3124 VRB04KT P6SM SCT040
     FM311000 VRB03KT 3SM BR SKC
     FM311600 25005KT P6SM FEW045=



000
FTUS43 KDTX 302249 AAD
TAFDTW
TAF AMD
KDTW 302249Z 3023/3124 VRB05KT P6SM SCT030 SCT050 BKN060
     FM310200 23005KT P6SM SCT060
     FM310800 VRB03KT 3SM BR SKC
     FM311000 00000KT 1SM BR VV007
     FM311400 VRB03KT 3SM BR SCT015
     FM311600 25005KT P6SM FEW045=



000
FTUS43 KDTX 302214 AAC
TAFDTW
TAF AMD
KDTW 302214Z 3022/3124 20007KT P6SM SCT030 BKN060
      TEMPO 3022/3023 30011KT 5SM SHRA BKN050
     FM310200 23005KT P6SM SCT060
     FM310800 VRB03KT 3SM BR SKC
     FM311000 00000KT 1SM BR VV007
     FM311400 VRB03KT 3SM BR SCT015
     FM311600 25005KT P6SM FEW045=



000
FTUS43 KDTX 302147 AAB
TAFDTW
TAF AMD
KDTW 302147Z 3022/3124 20007KT P6SM SCT030 BKN060
      TEMPO 3022/3023 24011KT 5SM TSRA BKN040CB
     FM310200 23005KT P6SM SCT060
     FM310800 VRB03KT 3SM BR SKC
     FM311000 00000KT 1SM BR VV007
     FM311400 VRB03KT 3SM BR SCT015
     FM311600 25005KT P6SM FEW045=



000
FTUS43 KDTX 302015 AAA
TAFDTW
TAF AMD
KDTW 302015Z 3020/3124 20007KT P6SM SCT030 BKN060
      TEMPO 3020/3022 5SM RA OVC030
     FM310200 23005KT P6SM SCT060
     FM310800 VRB03KT 3SM BR SKC
     FM311000 00000KT 1SM BR VV007
     FM311400 VRB03KT 3SM BR SCT015
     FM311600 25005KT P6SM FEW045=



000
FTUS43 KDTX 301730
TAFDET
TAF
KDET 301730Z 3018/3118 23007KT P6SM BKN045
      TEMPO 3018/3020 BKN030 OVC045
     FM310200 23005KT P6SM SKC
     FM311000 VRB03KT 3SM BR SKC
     FM311600 25005KT P6SM FEW045=



000
FTUS43 KDTX 301730
TAFFNT
TAF
KFNT 301730Z 3018/3118 20007KT P6SM BKN025 OVC040
      TEMPO 3018/3020 BKN015 OVC025
     FM302000 23007KT P6SM BKN045
     FM310200 23005KT P6SM SKC
     FM310800 VRB03KT 3SM BR SKC
     FM311000 00000KT 1SM BR VV007
     FM311400 VRB03KT 3SM BR SCT015
     FM311600 25005KT P6SM FEW045=



000
FTUS43 KDTX 301730
TAFDTW
TAF
KDTW 301730Z 3018/3124 23007KT P6SM BKN045
      TEMPO 3018/3020 BKN030 OVC045
     FM310200 23005KT P6SM SKC
     FM310800 VRB03KT 3SM BR SKC
     FM311000 00000KT 1SM BR VV007
     FM311400 VRB03KT 3SM BR SCT015
     FM311600 25005KT P6SM FEW045=



000
FTUS43 KDTX 301730
TAFMBS
TAF
KMBS 301730Z 3018/3118 20005KT P6SM BKN025 OVC040
      TEMPO 3018/3020 BKN015 OVC025
     FM302000 23007KT P6SM BKN045
     FM310200 23005KT P6SM SKC
     FM310800 VRB03KT 3SM BR SKC
     FM311000 00000KT 1SM BR VV007
     FM311400 VRB03KT 3SM BR SCT015
     FM311600 25005KT P6SM FEW045=



000
FTUS43 KDTX 301730
TAFDET
TAF
KDET 301730Z 3018/3118 23007KT P6SM BKN045
      TEMPO 3018/3020 BKN030 OVC045
     FM310200 23005KT P6SM SKC
     FM311000 VRB03KT 3SM BR SKC
     FM311600 25005KT P6SM FEW045=



000
FTUS43 KDTX 301730
TAFFNT
TAF
KFNT 301730Z 3018/3118 20007KT P6SM BKN025 OVC040
      TEMPO 3018/3020 BKN015 OVC025
     FM302000 23007KT P6SM BKN045
     FM310200 23005KT P6SM SKC
     FM310800 VRB03KT 3SM BR SKC
     FM311000 00000KT 1SM BR VV007
     FM311400 VRB03KT 3SM BR SCT015
     FM311600 25005KT P6SM FEW045=



000
FTUS43 KDTX 301730
TAFDTW
TAF
KDTW 301730Z 3018/3124 23007KT P6SM BKN045
      TEMPO 3018/3020 BKN030 OVC045
     FM310200 23005KT P6SM SKC
     FM310800 VRB03KT 3SM BR SKC
     FM311000 00000KT 1SM BR VV007
     FM311400 VRB03KT 3SM BR SCT015
     FM311600 25005KT P6SM FEW045=



000
FTUS43 KDTX 301730
TAFMBS
TAF
KMBS 301730Z 3018/3118 20005KT P6SM BKN025 OVC040
      TEMPO 3018/3020 BKN015 OVC025
     FM302000 23007KT P6SM BKN045
     FM310200 23005KT P6SM SKC
     FM310800 VRB03KT 3SM BR SKC
     FM311000 00000KT 1SM BR VV007
     FM311400 VRB03KT 3SM BR SCT015
     FM311600 25005KT P6SM FEW045=



000
FTUS43 KDTX 301518 AAA
TAFMBS
TAF AMD
KMBS 301518Z 3015/3112 VRB03KT 6SM HZ BKN015 OVC040
     FM301700 23005KT P6SM BKN025 OVC045
     FM301900 23005KT P6SM BKN045
     FM302200 VRB03KT P6SM SCT035
     FM310900 VRB02KT 3SM BR SKC=



000
FTUS43 KDTX 301518 AAA
TAFMBS
TAF AMD
KMBS 301518Z 3015/3112 VRB03KT 6SM HZ BKN015 OVC040
     FM301700 23005KT P6SM BKN025 OVC045
     FM301900 23005KT P6SM BKN045
     FM302200 VRB03KT P6SM SCT035
     FM310900 VRB02KT 3SM BR SKC=



000
FTUS43 KDTX 301515 AAA
TAFFNT
TAF AMD
KFNT 301515Z 3015/3112 20005KT 6SM HZ BKN015 OVC025
     FM301700 23005KT P6SM BKN025 OVC045
     FM301900 23005KT P6SM BKN045
     FM310000 VRB03KT P6SM SCT035
     FM310900 VRB02KT 3SM BR SKC=



000
FTUS43 KDTX 301515 AAA
TAFFNT
TAF AMD
KFNT 301515Z 3015/3112 20005KT 6SM HZ BKN015 OVC025
     FM301700 23005KT P6SM BKN025 OVC045
     FM301900 23005KT P6SM BKN045
     FM310000 VRB03KT P6SM SCT035
     FM310900 VRB02KT 3SM BR SKC=



000
FTUS43 KDTX 301510 AAA
TAFDET
TAF AMD
KDET 301510Z 3015/3112 23007KT P6SM BKN045
     FM310200 23005KT P6SM SCT030
     FM310900 VRB02KT 3SM BR SKC=



000
FTUS43 KDTX 301509 AAA
TAFDTW
TAF AMD
KDTW 301509Z 3015/3118 15005KT P6SM BKN045
     FM301700 23007KT P6SM BKN045
     FM310200 23005KT P6SM SCT030
     FM310900 VRB02KT 3SM BR SKC
     FM311300 25008KT P6SM SCT250=



000
FTUS43 KDTX 301120
TAFMBS
TAF
KMBS 301120Z 3012/3112 VRB03KT 3SM BR OVC025
     FM301600 23005KT P6SM BKN025
     FM301800 VRB03KT P6SM BKN035
     FM302200 VRB03KT P6SM SCT035
     FM310900 VRB02KT 3SM BR SKC=



000
FTUS43 KDTX 301120
TAFDET
TAF
KDET 301120Z 3012/3112 VRB03KT 5SM BR OVC040
     FM301400 22006KT P6SM BKN025 BKN040
     FM301800 25007KT P6SM BKN040
     FM310200 23004KT P6SM SCT030
     FM310900 VRB02KT 3SM BR SKC=



000
FTUS43 KDTX 301120
TAFFNT
TAF
KFNT 301120Z 3012/3112 VRB03KT 2SM BR BKN025
     FM301400 VRB03KT 4SM BR BKN018
     FM301600 23005KT P6SM BKN025
     FM301800 VRB03KT P6SM BKN035
     FM310000 VRB03KT P6SM SCT035
     FM310900 VRB02KT 3SM BR SKC=



000
FTUS43 KDTX 301120
TAFFNT
TAF
KFNT 301120Z 3012/3112 VRB03KT 2SM BR BKN025
     FM301400 VRB03KT 4SM BR BKN018
     FM301600 23005KT P6SM BKN025
     FM301800 VRB03KT P6SM BKN035
     FM310000 VRB03KT P6SM SCT035
     FM310900 VRB02KT 3SM BR SKC=



000
FTUS43 KDTX 301120
TAFDTW
TAF
KDTW 301120Z 3012/3118 VRB03KT 2SM BR SCT003 OVC040
     FM301400 22006KT P6SM BKN025 BKN040
     FM301800 25007KT P6SM BKN040
     FM310200 23004KT P6SM SCT030
     FM310900 VRB02KT 3SM BR SKC
     FM311300 25008KT P6SM SCT250=



000
FTUS43 KDTX 301120
TAFDET
TAF
KDET 301120Z 3012/3112 VRB03KT 5SM BR OVC040
     FM301400 22006KT P6SM BKN025 BKN040
     FM301800 25007KT P6SM BKN040
     FM310200 23004KT P6SM SCT030
     FM310900 VRB02KT 3SM BR SKC=



000
FTUS43 KDTX 301120
TAFMBS
TAF
KMBS 301120Z 3012/3112 VRB03KT 3SM BR OVC025
     FM301600 23005KT P6SM BKN025
     FM301800 VRB03KT P6SM BKN035
     FM302200 VRB03KT P6SM SCT035
     FM310900 VRB02KT 3SM BR SKC=



000
FTUS43 KDTX 301120
TAFDTW
TAF
KDTW 301120Z 3012/3118 VRB03KT 2SM BR SCT003 OVC040
     FM301400 22006KT P6SM BKN025 BKN040
     FM301800 25007KT P6SM BKN040
     FM310200 23004KT P6SM SCT030
     FM310900 VRB02KT 3SM BR SKC
     FM311300 25008KT P6SM SCT250=



000
FTUS43 KDTX 301113 AAB
TAFDTW
TAF AMD
KDTW 301113Z 3011/3112 VRB03KT 2SM BR SCT003 OVC040
     FM301400 22006KT P6SM BKN025 BKN040
     FM301800 25007KT P6SM BKN040
     FM310200 23004KT P6SM SCT030
     FM310900 VRB02KT 3SM BR SKC=



000
FTUS43 KDTX 301113 AAB
TAFDTW
TAF AMD
KDTW 301113Z 3011/3112 VRB03KT 2SM BR SCT003 OVC040
     FM301400 22006KT P6SM BKN025 BKN040
     FM301800 25007KT P6SM BKN040
     FM310200 23004KT P6SM SCT030
     FM310900 VRB02KT 3SM BR SKC=



000
FTUS43 KDTX 300846 AAA
TAFMBS
TAF AMD
KMBS 300846Z 3009/3106 00000KT 3SM BR OVC025
     FM301100 VRB03KT 1SM BR OVC007
     FM301400 VRB03KT 4SM BR OVC015
     FM301800 VRB03KT P6SM BKN025=



000
FTUS43 KDTX 300846 AAA
TAFMBS
TAF AMD
KMBS 300846Z 3009/3106 00000KT 3SM BR OVC025
     FM301100 VRB03KT 1SM BR OVC007
     FM301400 VRB03KT 4SM BR OVC015
     FM301800 VRB03KT P6SM BKN025=



000
FTUS43 KDTX 300845 AAA
TAFDET
TAF AMD
KDET 300845Z 3009/3106 00000KT 6SM BR OVC060
     FM301000 VRB03KT 4SM BR OVC040
     FM301400 22006KT P6SM SCT025 BKN040
     FM301800 25007KT P6SM BKN040
     FM310200 23004KT P6SM SCT030=



000
FTUS43 KDTX 300845 AAA
TAFDET
TAF AMD
KDET 300845Z 3009/3106 00000KT 6SM BR OVC060
     FM301000 VRB03KT 4SM BR OVC040
     FM301400 22006KT P6SM SCT025 BKN040
     FM301800 25007KT P6SM BKN040
     FM310200 23004KT P6SM SCT030=



000
FTUS43 KDTX 300829 AAA
TAFDTW
TAF AMD
KDTW 300829Z 3008/3112 00000KT 6SM BR OVC060
     FM301000 VRB03KT 4SM BR OVC040
     FM301400 22006KT P6SM SCT025 BKN040
     FM301800 25007KT P6SM BKN040
     FM310200 23004KT P6SM SCT030
     FM310900 VRB02KT 3SM BR SKC=



000
FTUS43 KDTX 300526
TAFMBS
TAF
KMBS 300526Z 3006/3106 VRB03KT 1SM BR OVC025
     FM300800 VRB03KT 1SM BR OVC007
     FM301400 VRB03KT 4SM BR OVC015
     FM301800 VRB03KT P6SM BKN025=



000
FTUS43 KDTX 300526
TAFDTW
TAF
KDTW 300526Z 3006/3112 VRB03KT 5SM -SHRA BR OVC060
     FM300800 15003KT 5SM BR OVC025
     FM301200 16005KT 4SM BR BKN007 BKN015 OVC025
     FM301600 23006KT P6SM BKN020
     FM301800 25007KT P6SM BKN035=



000
FTUS43 KDTX 300526
TAFDTW
TAF
KDTW 300526Z 3006/3112 VRB03KT 5SM -SHRA BR OVC060
     FM300800 15003KT 5SM BR OVC025
     FM301200 16005KT 4SM BR BKN007 BKN015 OVC025
     FM301600 23006KT P6SM BKN020
     FM301800 25007KT P6SM BKN035=



000
FTUS43 KDTX 300526
TAFFNT
TAF
KFNT 300526Z 3006/3106 VRB03KT 2SM BR OVC045
     FM301000 VRB03KT 1SM BR OVC015
     FM301200 VRB03KT 1SM BR OVC007
     FM301600 VRB03KT 4SM BR OVC015
     FM301800 VRB03KT P6SM BKN025=



000
FTUS43 KDTX 300526
TAFDET
TAF
KDET 300526Z 3006/3106 VRB03KT 5SM -SHRA BR OVC060
     FM300800 15003KT 5SM BR OVC025
     FM301200 16005KT 4SM BR BKN007 BKN015 OVC025
     FM301600 23006KT P6SM BKN020
     FM301800 25007KT P6SM BKN035=



000
FTUS43 KDTX 300526
TAFDET
TAF
KDET 300526Z 3006/3106 VRB03KT 5SM -SHRA BR OVC060
     FM300800 15003KT 5SM BR OVC025
     FM301200 16005KT 4SM BR BKN007 BKN015 OVC025
     FM301600 23006KT P6SM BKN020
     FM301800 25007KT P6SM BKN035=



000
FTUS43 KDTX 300526
TAFFNT
TAF
KFNT 300526Z 3006/3106 VRB03KT 2SM BR OVC045
     FM301000 VRB03KT 1SM BR OVC015
     FM301200 VRB03KT 1SM BR OVC007
     FM301600 VRB03KT 4SM BR OVC015
     FM301800 VRB03KT P6SM BKN025=



000
FTUS43 KDTX 300526
TAFMBS
TAF
KMBS 300526Z 3006/3106 VRB03KT 1SM BR OVC025
     FM300800 VRB03KT 1SM BR OVC007
     FM301400 VRB03KT 4SM BR OVC015
     FM301800 VRB03KT P6SM BKN025=



000
FTUS43 KDTX 300250 AAB
TAFDTW
TAF AMD
KDTW 300250Z 3003/3106 VRB03KT 5SM -SHRA BR OVC050
     FM300800 15003KT 5SM BR OVC025
     FM301200 16005KT 4SM BR BKN007 BKN015 OVC025
     FM301600 23006KT P6SM BKN020
     FM301800 25007KT P6SM BKN035=



000
FTUS43 KDTX 300144 AAA
TAFDET
TAF AMD
KDET 300144Z 3002/3024 00000KT P6SM SCT060 OVC090
     FM300300 11003KT 4SM -SHRA BR SCT030 OVC060
     FM300500 12005KT 3SM BR OVC050
     FM301000 VRB03KT 1SM BR BKN015
     FM301400 23005KT 3SM BR BKN025
     FM301600 23007KT P6SM BKN045=



000
FTUS43 KDTX 300144 AAA
TAFDTW
TAF AMD
KDTW 300144Z 3002/3106 11003KT P6SM SCT060 OVC090
     FM300300 11003KT 4SM -SHRA BR SCT030 OVC060
     FM300500 12005KT 3SM BR OVC050
     FM301000 VRB03KT 1SM BR BKN015
     FM301400 23005KT 3SM BR BKN025
     FM301600 23007KT P6SM BKN045=



000
FTUS43 KDTX 292320
TAFDET
TAF
KDET 292320Z 3000/3024 00000KT P6SM SCT060 OVC090
     FM300100 11003KT 4SM -SHRA BR SCT025 OVC045
     FM300500 12005KT 3SM BR SCT045
     FM301000 VRB03KT 1SM BR BKN015
     FM301400 23005KT 3SM BR BKN025
     FM301600 23007KT P6SM BKN045=



000
FTUS43 KDTX 292320
TAFMBS
TAF
KMBS 292320Z 3000/3024 21004KT 2SM -RA BR SCT020 OVC045
     FM300100 14005KT 3SM BR BKN025 OVC040
     FM300600 VRB03KT 1SM BR OVC007
     FM301400 VRB03KT 3SM BR BKN025=



000
FTUS43 KDTX 292320
TAFFNT
TAF
KFNT 292320Z 3000/3024 09003KT 4SM -RA OVC045
     FM300200 14005KT 3SM BR BKN024 OVC040
     FM300700 VRB03KT 1SM BR OVC007
     FM301400 VRB03KT 3SM BR BKN025
     FM301600 20005KT P6SM BKN040=



000
FTUS43 KDTX 292320
TAFDET
TAF
KDET 292320Z 3000/3024 00000KT P6SM SCT060 OVC090
      TEMPO 3000/3003 4SM -RA SCT025 OVC045
     FM300500 12005KT 3SM BR SCT045
     FM301000 VRB03KT 1SM BR BKN015
     FM301400 23005KT 3SM BR BKN025
     FM301600 23007KT P6SM BKN045=



000
FTUS43 KDTX 292320
TAFMBS
TAF
KMBS 292320Z 3000/3024 21004KT 2SM -RA BR SCT020 OVC045
     FM300100 14005KT 3SM BR BKN025 OVC040
     FM300600 VRB03KT 1SM BR OVC007
     FM301400 VRB03KT 3SM BR BKN025=



000
FTUS43 KDTX 292320
TAFDET
TAF
KDET 292320Z 3000/3024 00000KT P6SM SCT060 OVC090
      TEMPO 3000/3003 4SM -RA SCT025 OVC045
     FM300500 12005KT 3SM BR SCT045
     FM301000 VRB03KT 1SM BR BKN015
     FM301400 23005KT 3SM BR BKN025
     FM301600 23007KT P6SM BKN045=



000
FTUS43 KDTX 292320
TAFDET
TAF
KDET 292320Z 3000/3024 00000KT P6SM SCT060 OVC090
     FM300100 11003KT 4SM -SHRA BR SCT025 OVC045
     FM300500 12005KT 3SM BR SCT045
     FM301000 VRB03KT 1SM BR BKN015
     FM301400 23005KT 3SM BR BKN025
     FM301600 23007KT P6SM BKN045=



000
FTUS43 KDTX 292320
TAFDTW
TAF
KDTW 292320Z 3000/3106 11003KT P6SM SCT060 OVC090
     FM300100 11003KT 4SM -SHRA BR SCT025 OVC045
     FM300500 12005KT 3SM BR SCT045
     FM301000 VRB03KT 1SM BR BKN015
     FM301400 23005KT 3SM BR BKN025
     FM301600 23007KT P6SM BKN045=



000
FTUS43 KDTX 292320
TAFDTW
TAF
KDTW 292320Z 3000/3106 11003KT P6SM SCT060 OVC090
      TEMPO 3000/3003 4SM -SHRA SCT025 OVC045
     FM300500 12005KT 3SM BR SCT045
     FM301000 VRB03KT 1SM BR BKN015
     FM301400 23005KT 3SM BR BKN025
     FM301600 23007KT P6SM BKN045=



000
FTUS43 KDTX 292320
TAFFNT
TAF
KFNT 292320Z 3000/3024 09003KT 4SM -RA OVC045
     FM300200 14005KT 3SM BR BKN024 OVC040
     FM300700 VRB03KT 1SM BR OVC007
     FM301400 VRB03KT 3SM BR BKN025
     FM301600 20005KT P6SM BKN040=



000
FTUS43 KDTX 292106 AAA
TAFDTW
TAF AMD
KDTW 292106Z 2921/3024 14005KT 6SM -SHRA SCT050 OVC100
     FM292200 14005KT P6SM BKN045 OVC080
      TEMPO 2922/3002 4SM -SHRA SCT025 OVC045
     FM300500 12005KT 3SM BR SCT045
     FM301000 VRB03KT 1SM BR BKN015
     FM301400 23005KT 3SM BR BKN025
     FM301600 23007KT P6SM BKN045=



000
FTUS43 KDTX 291732
TAFFNT
TAF
KFNT 291732Z 2918/3018 17005KT 6SM -SHRA BKN045 OVC080
      TEMPO 2922/3001 4SM -RA SCT025 OVC045
     FM300200 14005KT 3SM BR BKN024 OVC040
     FM300700 VRB03KT 1SM BR OVC007
     FM301400 VRB03KT 3SM BR BKN025
     FM301600 20005KT P6SM BKN040=



000
FTUS43 KDTX 291732
TAFDET
TAF
KDET 291732Z 2918/3018 12005KT 6SM -SHRA SCT050 OVC100
     FM292200 14005KT P6SM BKN045 OVC080
      TEMPO 2922/3001 4SM -RA SCT025 OVC045
     FM300500 12005KT 3SM BR SCT045
     FM301000 VRB03KT 1SM BR BKN015
     FM301400 23005KT 3SM BR BKN025
     FM301600 23007KT P6SM BKN045=



000
FTUS43 KDTX 291732
TAFDTW
TAF
KDTW 291732Z 2918/3024 14005KT 6SM -SHRA SCT050 OVC100
     FM292200 14005KT P6SM BKN045 OVC080
      TEMPO 2922/3001 4SM -RA SCT025 OVC045
     FM300500 12005KT 3SM BR SCT045
     FM301000 VRB03KT 1SM BR BKN015
     FM301400 23005KT 3SM BR BKN025
     FM301600 23007KT P6SM BKN045=



000
FTUS43 KDTX 291732
TAFDET
TAF
KDET 291732Z 2918/3018 12005KT 6SM -SHRA SCT050 OVC100
     FM292200 14005KT P6SM BKN045 OVC080
      TEMPO 2922/3001 4SM -RA SCT025 OVC045
     FM300500 12005KT 3SM BR SCT045
     FM301000 VRB03KT 1SM BR BKN015
     FM301400 23005KT 3SM BR BKN025
     FM301600 23007KT P6SM BKN045=



000
FTUS43 KDTX 291732
TAFFNT
TAF
KFNT 291732Z 2918/3018 17005KT 6SM -SHRA BKN045 OVC080
      TEMPO 2922/3001 4SM -RA SCT025 OVC045
     FM300200 14005KT 3SM BR BKN024 OVC040
     FM300700 VRB03KT 1SM BR OVC007
     FM301400 VRB03KT 3SM BR BKN025
     FM301600 20005KT P6SM BKN040=



000
FTUS43 KDTX 291732
TAFDTW
TAF
KDTW 291732Z 2918/3024 14005KT 6SM -SHRA SCT050 OVC100
     FM292200 14005KT P6SM BKN045 OVC080
      TEMPO 2922/3001 4SM -RA SCT025 OVC045
     FM300500 12005KT 3SM BR SCT045
     FM301000 VRB03KT 1SM BR BKN015
     FM301400 23005KT 3SM BR BKN025
     FM301600 23007KT P6SM BKN045=



000
FTUS43 KDTX 291732
TAFMBS
TAF
KMBS 291732Z 2918/3018 14005KT 6SM -SHRA BKN045 OVC080
     FM300100 14005KT 3SM BR BKN025 OVC040
     FM300600 VRB03KT 1SM BR OVC007
     FM301400 VRB03KT 3SM BR BKN025=



000
FTUS43 KDTX 291732
TAFMBS
TAF
KMBS 291732Z 2918/3018 14005KT 6SM -SHRA BKN045 OVC080
     FM300100 14005KT 3SM BR BKN025 OVC040
     FM300600 VRB03KT 1SM BR OVC007
     FM301400 VRB03KT 3SM BR BKN025=



000
FTUS43 KDTX 291523 AAA
TAFMBS
TAF AMD
KMBS 291523Z 2915/3012 14007KT 6SM -SHRA OVC080
      TEMPO 2915/2919 4SM RA OVC040
     FM292000 16005KT P6SM BKN050 OVC120
     FM300900 VRB02KT 3SM BR SCT040=



000
FTUS43 KDTX 291522 AAA
TAFFNT
TAF AMD
KFNT 291522Z 2915/3012 14007KT 6SM -SHRA OVC080
      TEMPO 2916/2920 4SM RA OVC040
     FM292200 14005KT P6SM BKN040 OVC080=



000
FTUS43 KDTX 291512 AAA
TAFDET
TAF AMD
KDET 291512Z 2915/3012 12005KT P6SM SCT050 OVC120
      TEMPO 2919/2922 6SM -SHRA
     FM292200 14005KT P6SM BKN050 OVC120
      TEMPO 2922/3002 4SM -SHRA SCT030 BKN050=



000
FTUS43 KDTX 291506 AAA
TAFDTW
TAF AMD
KDTW 291506Z 2915/3018 16005KT P6SM SCT050 OVC120
      TEMPO 2919/2922 6SM -SHRA
     FM292200 14005KT P6SM BKN050 OVC120
      TEMPO 2922/3001 4SM -SHRA SCT030 OVC050=



000
FTUS43 KDTX 291506 AAA
TAFDTW
TAF AMD
KDTW 291506Z 2915/3018 16005KT P6SM SCT050 OVC120
      TEMPO 2919/2922 6SM -SHRA
     FM292200 14005KT P6SM BKN050 OVC120
      TEMPO 2922/3001 4SM -SHRA SCT030 OVC050=



000
FTUS43 KDTX 291134
TAFFNT
TAF
KFNT 291134Z 2912/3012 VRB05KT P6SM SCT080 OVC120
      TEMPO 2914/2918 6SM -SHRA SCT050 BKN060
     FM292100 16004KT P6SM BKN050 OVC120=



000
FTUS43 KDTX 291134
TAFMBS
TAF
KMBS 291134Z 2912/3012 17005KT P6SM OVC080
      TEMPO 2912/2916 6SM -SHRA SCT050 OVC060
     FM292100 16005KT P6SM BKN050 OVC120
     FM300900 VRB02KT 3SM BR SCT040=



000
FTUS43 KDTX 291134
TAFDTW
TAF
KDTW 291134Z 2912/3018 16004KT P6SM SCT100 BKN120 OVC150
     FM291700 16005KT P6SM SCT050 OVC120
     FM292100 17005KT P6SM BKN050 OVC120
      TEMPO 2922/3002 4SM -SHRA SCT030 BKN050=



000
FTUS43 KDTX 291134
TAFDET
TAF
KDET 291134Z 2912/3012 16004KT P6SM SCT100 BKN120 OVC150
     FM291700 16005KT P6SM SCT050 OVC120
     FM292100 17005KT P6SM BKN050 OVC120
      TEMPO 2922/3002 4SM -SHRA SCT030 BKN050=



000
FTUS43 KDTX 291134
TAFDET
TAF
KDET 291134Z 2912/3012 16004KT P6SM SCT100 BKN120 OVC150
     FM291700 16005KT P6SM SCT050 OVC120
     FM292100 17005KT P6SM BKN050 OVC120
      TEMPO 2922/3002 4SM -SHRA SCT030 BKN050=



000
FTUS43 KDTX 291134
TAFFNT
TAF
KFNT 291134Z 2912/3012 VRB05KT P6SM SCT080 OVC120
      TEMPO 2914/2918 6SM -SHRA SCT050 BKN060
     FM292100 16004KT P6SM BKN050 OVC120=



000
FTUS43 KDTX 291134
TAFMBS
TAF
KMBS 291134Z 2912/3012 17005KT P6SM OVC080
      TEMPO 2912/2916 6SM -SHRA SCT050 OVC060
     FM292100 16005KT P6SM BKN050 OVC120
     FM300900 VRB02KT 3SM BR SCT040=



000
FTUS43 KDTX 291134
TAFDTW
TAF
KDTW 291134Z 2912/3018 16004KT P6SM SCT100 BKN120 OVC150
     FM291700 16005KT P6SM SCT050 OVC120
     FM292100 17005KT P6SM BKN050 OVC120
      TEMPO 2922/3002 4SM -SHRA SCT030 BKN050=



000
FTUS43 KDTX 290827 AAA
TAFDTW
TAF AMD
KDTW 290827Z 2908/3012 16004KT P6SM SCT100 BKN150 OVC200
     FM291700 16005KT P6SM SCT050 OVC120
     FM292100 16005KT P6SM BKN050 OVC120
      TEMPO 2922/3002 4SM -SHRA SCT030 BKN050=



000
FTUS43 KDTX 290522
TAFMBS
TAF
KMBS 290522Z 2906/3006 20005KT P6SM -SHRA OVC100
     FM290700 VRB05KT P6SM -RA OVC080
     FM291200 17005KT P6SM OVC080
      TEMPO 2914/2918 6SM -SHRA SCT050 BKN060
     FM292100 16005KT P6SM BKN050 OVC120=



000
FTUS43 KDTX 290522
TAFDET
TAF
KDET 290522Z 2906/3006 17005KT P6SM SCT100 BKN150 OVC200
     FM292100 16005KT P6SM BKN050 OVC120
      TEMPO 2922/3002 4SM -SHRA SCT030 BKN050=



000
FTUS43 KDTX 290522
TAFFNT
TAF
KFNT 290522Z 2906/3006 VRB04KT P6SM BKN080 OVC100
      TEMPO 2906/2910 -RA
     FM291000 VRB05KT P6SM SCT080 BKN120
      TEMPO 2916/2920 6SM -SHRA SCT050 BKN060
     FM292100 16005KT P6SM BKN050 OVC120=



000
FTUS43 KDTX 290522
TAFDET
TAF
KDET 290522Z 2906/3006 17005KT P6SM SCT100 BKN150 OVC200
     FM292100 16005KT P6SM BKN050 OVC120
      TEMPO 2922/3002 4SM -SHRA SCT030 BKN050=



000
FTUS43 KDTX 290522
TAFMBS
TAF
KMBS 290522Z 2906/3006 20005KT P6SM -SHRA OVC100
     FM290700 VRB05KT P6SM -RA OVC080
     FM291200 17005KT P6SM OVC080
      TEMPO 2914/2918 6SM -SHRA SCT050 BKN060
     FM292100 16005KT P6SM BKN050 OVC120=



000
FTUS43 KDTX 290522
TAFDTW
TAF
KDTW 290522Z 2906/3012 16004KT P6SM SCT100 BKN150 OVC200
     FM291700 16005KT P6SM SCT050 OVC120
     FM292100 16005KT P6SM BKN050 OVC120
      TEMPO 2922/3002 4SM -SHRA SCT030 BKN050=



000
FTUS43 KDTX 290522
TAFFNT
TAF
KFNT 290522Z 2906/3006 VRB04KT P6SM BKN080 OVC100
      TEMPO 2906/2910 -RA
     FM291000 VRB05KT P6SM SCT080 BKN120
      TEMPO 2916/2920 6SM -SHRA SCT050 BKN060
     FM292100 16005KT P6SM BKN050 OVC120=



000
FTUS43 KDTX 290522
TAFDTW
TAF
KDTW 290522Z 2906/3012 16004KT P6SM SCT100 BKN150 OVC200
     FM291700 16005KT P6SM SCT050 OVC120
     FM292100 16005KT P6SM BKN050 OVC120
      TEMPO 2922/3002 4SM -SHRA SCT030 BKN050=



000
FTUS43 KDTX 290242 AAA
TAFDTW
TAF AMD
KDTW 290242Z 2903/3006 16004KT P6SM SCT100 BKN150 OVC200
     FM291700 16005KT P6SM SCT050 OVC120
     FM292100 16005KT P6SM BKN050 OVC120
      TEMPO 2921/3001 4SM -SHRA SCT030 BKN050=



000
FTUS43 KDTX 290242 AAA
TAFDTW
TAF AMD
KDTW 290242Z 2903/3006 16004KT P6SM SCT100 BKN150 OVC200
     FM291700 16005KT P6SM SCT050 OVC120
     FM292100 16005KT P6SM BKN050 OVC120
      TEMPO 2921/3001 4SM -SHRA SCT030 BKN050=



000
FTUS43 KDTX 282320
TAFFNT
TAF
KFNT 282320Z 2900/2924 19005KT P6SM SCT100 BKN150 OVC200
     FM290600 VRB05KT P6SM BKN080 OVC100=



000
FTUS43 KDTX 282320
TAFMBS
TAF
KMBS 282320Z 2900/2924 20005KT P6SM SCT100 BKN150 OVC200
     FM290900 VRB05KT P6SM OVC080 PROB30 2909/2912 6SM -RA OVC070=



000
FTUS43 KDTX 282320
TAFDTW
TAF
KDTW 282320Z 2900/3006 16005KT P6SM SCT100 BKN150 OVC200
     FM291700 16005KT P6SM SCT050 OVC120
     FM292100 16005KT P6SM BKN050 OVC120=



000
FTUS43 KDTX 282320
TAFFNT
TAF
KFNT 282320Z 2900/2924 19005KT P6SM SCT100 BKN150 OVC200
     FM290600 VRB05KT P6SM BKN080 OVC100=



000
FTUS43 KDTX 282320
TAFDET
TAF
KDET 282320Z 2900/2924 17005KT P6SM SCT100 BKN150 OVC200=



000
FTUS43 KDTX 282320
TAFMBS
TAF
KMBS 282320Z 2900/2924 20005KT P6SM SCT100 BKN150 OVC200
     FM290900 VRB05KT P6SM OVC080 PROB30 2909/2912 6SM -RA OVC070=



000
FTUS43 KDTX 282320
TAFDTW
TAF
KDTW 282320Z 2900/3006 16005KT P6SM SCT100 BKN150 OVC200
     FM291700 16005KT P6SM SCT050 OVC120
     FM292100 16005KT P6SM BKN050 OVC120=



000
FTUS43 KDTX 282320
TAFDET
TAF
KDET 282320Z 2900/2924 17005KT P6SM SCT100 BKN150 OVC200=



000
FTUS43 KDTX 282059 AAA
TAFDTW
TAF AMD
KDTW 282059Z 2821/2924 15005KT P6SM SCT045 OVC200
     FM282200 19006KT P6SM SCT050 OVC250
     FM290100 16005KT P6SM BKN150 OVC250
     FM291400 19009KT P6SM SCT050 OVC120
     FM292000 19009KT P6SM BKN050=



000
FTUS43 KDTX 281728
TAFDET
TAF
KDET 281728Z 2818/2918 19005KT P6SM BKN045
     FM282200 19006KT P6SM SCT050 OVC250
     FM290100 16005KT P6SM BKN150 OVC250
     FM291400 19009KT P6SM SCT050 OVC120=



000
FTUS43 KDTX 281728
TAFFNT
TAF
KFNT 281728Z 2818/2918 21005KT P6SM BKN045
     FM282100 22006KT P6SM SCT050 BKN250
     FM290100 16005KT P6SM BKN150 OVC250
     FM291400 19009KT P6SM SCT045 OVC120=



000
FTUS43 KDTX 281728
TAFDTW
TAF
KDTW 281728Z 2818/2924 19005KT P6SM BKN045
     FM282200 19006KT P6SM SCT050 OVC250
     FM290100 16005KT P6SM BKN150 OVC250
     FM291400 19009KT P6SM SCT050 OVC120
     FM292000 19009KT P6SM BKN050=



000
FTUS43 KDTX 281728
TAFMBS
TAF
KMBS 281728Z 2818/2918 21005KT P6SM SCT045 SCT250
     FM282100 22006KT P6SM SCT050 OVC250
     FM290100 20005KT P6SM BKN150 OVC250
     FM290900 26005KT P6SM OVC070 PROB30 2909/2912 5SM -SHRA OVC070=



000
FTUS43 KDTX 281506 AAB
TAFDTW
TAF AMD
KDTW 281506Z 2815/2918 00000KT P6SM BKN040
     FM281900 19005KT P6SM SCT045 SCT250
     FM282200 19006KT P6SM BKN050 BKN250
     FM290100 16005KT P6SM BKN150 OVC250
     FM291700 19009KT P6SM BKN050=



000
FTUS43 KDTX 281506 AAB
TAFDTW
TAF AMD
KDTW 281506Z 2815/2918 00000KT P6SM BKN040
     FM281900 19005KT P6SM SCT045 SCT250
     FM282200 19006KT P6SM BKN050 BKN250
     FM290100 16005KT P6SM BKN150 OVC250
     FM291700 19009KT P6SM BKN050=



000
FTUS43 KDTX 281352 AAA
TAFFNT
TAF AMD
KFNT 281352Z 2814/2912 00000KT 5SM HZ SCT040
     FM281600 21005KT P6SM SCT045 SCT250
     FM282100 22006KT P6SM BKN050 BKN250
     FM290100 16005KT P6SM BKN150 OVC250=



000
FTUS43 KDTX 281350 AAA
TAFDTW
TAF AMD
KDTW 281350Z 2814/2918 00000KT P6SM BKN040
     FM281700 19005KT P6SM SCT045 SCT250
     FM282000 19006KT P6SM BKN050 BKN250
     FM290100 16005KT P6SM BKN150 OVC250
     FM291700 19009KT P6SM BKN050=



000
FTUS43 KDTX 281350 AAA
TAFDET
TAF AMD
KDET 281350Z 2814/2912 00000KT P6SM BKN040
     FM281700 19005KT P6SM SCT045 SCT250
     FM282000 19006KT P6SM BKN050 BKN250
     FM290100 16005KT P6SM BKN150 OVC250=



000
FTUS43 KDTX 281120
TAFDET
TAF
KDET 281120Z 2812/2912 00000KT P6SM SCT250
     FM281400 16005KT P6SM SCT045 SCT250
     FM282000 19006KT P6SM BKN050 BKN250
     FM290100 16005KT P6SM BKN150 OVC250=



000
FTUS43 KDTX 281120
TAFDTW
TAF
KDTW 281120Z 2812/2918 00000KT P6SM SCT250
     FM281400 16005KT P6SM SCT045 SCT250
     FM282000 19006KT P6SM BKN050 BKN250
     FM290100 16005KT P6SM BKN150 OVC250
     FM291700 19009KT P6SM BKN050=



000
FTUS43 KDTX 281120
TAFMBS
TAF
KMBS 281120Z 2812/2912 20005KT P6SM SCT045 SCT250
     FM282100 22006KT P6SM BKN050 BKN250
     FM290100 16005KT P6SM BKN150 OVC250=



000
FTUS43 KDTX 281120
TAFDET
TAF
KDET 281120Z 2812/2912 00000KT P6SM SCT250
     FM281400 16005KT P6SM SCT045 SCT250
     FM282000 19006KT P6SM BKN050 BKN250
     FM290100 16005KT P6SM BKN150 OVC250=



000
FTUS43 KDTX 281120
TAFDTW
TAF
KDTW 281120Z 2812/2918 00000KT P6SM SCT250
     FM281400 16005KT P6SM SCT045 SCT250
     FM282000 19006KT P6SM BKN050 BKN250
     FM290100 16005KT P6SM BKN150 OVC250
     FM291700 19009KT P6SM BKN050=



000
FTUS43 KDTX 281120
TAFMBS
TAF
KMBS 281120Z 2812/2912 20005KT P6SM SCT045 SCT250
     FM282100 22006KT P6SM BKN050 BKN250
     FM290100 16005KT P6SM BKN150 OVC250=



000
FTUS43 KDTX 281120
TAFFNT
TAF
KFNT 281120Z 2812/2912 00000KT 5SM BR SCT250
     FM281300 21005KT P6SM SCT045 SCT250
     FM282100 22006KT P6SM BKN050 BKN250
     FM290100 16005KT P6SM BKN150 OVC250=



000
FTUS43 KDTX 281120
TAFFNT
TAF
KFNT 281120Z 2812/2912 00000KT 5SM BR SCT250
     FM281300 21005KT P6SM SCT045 SCT250
     FM282100 22006KT P6SM BKN050 BKN250
     FM290100 16005KT P6SM BKN150 OVC250=



    US Dept of Commerce
    National Oceanic and Atmospheric Administration
    National Weather Service
    1325 East West Highway
    Silver Spring, MD 20910
    Page Author: NWS Internet Services Team
Disclaimer
Information Quality
Credits
Glossary
Privacy Policy
Freedom of Information Act (FOIA)
About Us
Career Opportunities